createdAt,value
2019-03-25T00:02:11.610Z,71.07
2019-03-25T00:04:38.950Z,71.48
2019-03-25T00:07:06.264Z,71.65
2019-03-25T00:09:33.602Z,71.62
2019-03-25T00:12:00.933Z,71.87
2019-03-25T00:14:28.166Z,71.93
2019-03-25T00:16:55.686Z,72.15
2019-03-25T00:19:23.001Z,72.25
2019-03-25T00:21:50.339Z,72.36
2019-03-25T00:24:17.574Z,73.05
2019-03-25T00:26:44.908Z,72.70
2019-03-25T00:29:12.253Z,72.70
2019-03-25T00:31:39.562Z,72.34
2019-03-25T00:34:06.796Z,72.48
2019-03-25T00:36:34.121Z,72.45
2019-03-25T00:39:01.487Z,72.02
2019-03-25T00:41:28.726Z,71.67
2019-03-25T00:43:56.064Z,71.21
2019-03-25T00:46:23.374Z,70.89
2019-03-25T00:48:50.611Z,70.49
2019-03-25T00:51:17.939Z,70.38
2019-03-25T00:53:45.276Z,69.74
2019-03-25T00:56:12.619Z,69.46
2019-03-25T00:58:39.941Z,69.80
2019-03-25T01:01:07.298Z,69.66
2019-03-25T01:03:34.648Z,69.60
2019-03-25T01:06:01.974Z,69.39
2019-03-25T01:08:29.303Z,69.16
2019-03-25T01:10:56.633Z,68.86
2019-03-25T01:13:23.971Z,68.23
2019-03-25T01:15:51.303Z,68.33
2019-03-25T01:18:18.555Z,68.12
2019-03-25T01:20:45.878Z,68.07
2019-03-25T01:23:13.183Z,68.74
2019-03-25T01:25:40.519Z,67.92
2019-03-25T01:28:07.829Z,67.99
2019-03-25T01:30:35.164Z,68.21
2019-03-25T01:33:02.378Z,68.34
2019-03-25T01:35:29.622Z,67.54
2019-03-25T01:37:56.847Z,67.56
2019-03-25T01:40:24.220Z,67.48
2019-03-25T01:42:51.490Z,66.57
2019-03-25T01:45:18.779Z,66.88
2019-03-25T01:47:46.100Z,66.65
2019-03-25T01:50:13.438Z,66.30
2019-03-25T01:52:40.655Z,66.30
2019-03-25T01:55:13.303Z,66.65
2019-03-25T01:57:37.277Z,66.65
2019-03-25T02:00:05.049Z,66.71
2019-03-25T02:02:32.380Z,66.29
2019-03-25T02:04:59.725Z,65.45
2019-03-25T02:07:26.964Z,65.00
2019-03-25T02:09:54.337Z,64.83
2019-03-25T02:12:21.663Z,65.57
2019-03-25T02:14:48.903Z,65.01
2019-03-25T02:17:16.211Z,65.29
2019-03-25T02:19:43.447Z,64.89
2019-03-25T02:22:10.662Z,65.42
2019-03-25T02:24:37.994Z,65.35
2019-03-25T02:27:05.333Z,65.91
2019-03-25T02:29:32.671Z,66.50
2019-03-25T02:32:00.044Z,68.26
2019-03-25T02:34:27.299Z,69.45
2019-03-25T02:36:54.534Z,69.07
2019-03-25T02:39:21.666Z,70.26
2019-03-25T02:41:48.893Z,70.86
2019-03-25T02:44:16.253Z,71.68
2019-03-25T02:46:43.483Z,75.89
2019-03-25T02:49:10.813Z,76.82
2019-03-25T02:51:38.135Z,77.46
2019-03-25T02:54:05.466Z,77.69
2019-03-25T02:56:32.795Z,77.42
2019-03-25T02:59:00.137Z,77.49
2019-03-25T03:01:27.475Z,77.76
2019-03-25T03:03:54.696Z,78.40
2019-03-25T03:06:22.043Z,78.27
2019-03-25T03:08:49.352Z,79.44
2019-03-25T03:11:16.687Z,79.03
2019-03-25T03:13:43.812Z,78.60
2019-03-25T03:16:11.045Z,78.59
2019-03-25T03:18:38.260Z,78.47
2019-03-25T03:21:05.616Z,78.15
2019-03-25T03:23:32.872Z,79.13
2019-03-25T03:26:00.228Z,78.88
2019-03-25T03:28:27.453Z,77.41
2019-03-25T03:30:54.791Z,77.85
2019-03-25T03:33:22.029Z,77.26
2019-03-25T03:35:49.397Z,76.25
2019-03-25T03:38:16.719Z,77.35
2019-03-25T03:40:43.864Z,77.57
2019-03-25T03:43:11.213Z,76.27
2019-03-25T03:45:38.454Z,75.73
2019-03-25T03:48:05.720Z,75.77
2019-03-25T03:50:32.967Z,76.27
2019-03-25T03:53:00.301Z,77.02
2019-03-25T03:55:28.539Z,78.46
2019-03-25T03:57:56.354Z,80.04
2019-03-25T04:00:31.539Z,81.09
2019-03-25T04:02:59.594Z,80.93
2019-03-25T04:05:27.129Z,82.26
2019-03-25T04:07:54.551Z,82.90
2019-03-25T04:10:21.794Z,83.42
2019-03-25T04:12:49.110Z,83.99
2019-03-25T04:15:24.294Z,84.29
2019-03-25T04:17:51.523Z,84.87
2019-03-25T04:20:18.842Z,84.97
2019-03-25T04:22:45.977Z,84.75
2019-03-25T04:25:13.304Z,84.87
2019-03-25T04:27:40.548Z,85.17
2019-03-25T04:30:08.306Z,85.54
2019-03-25T04:32:35.646Z,85.82
2019-03-25T04:35:02.987Z,86.10
2019-03-25T04:37:30.322Z,86.26
2019-03-25T04:39:57.626Z,86.19
2019-03-25T04:42:24.997Z,85.88
2019-03-25T04:44:52.204Z,86.13
2019-03-25T04:47:19.549Z,85.99
2019-03-25T04:49:46.761Z,86.21
2019-03-25T04:52:13.992Z,86.54
2019-03-25T04:54:41.300Z,86.86
2019-03-25T04:57:08.542Z,87.04
2019-03-25T04:59:35.759Z,87.09
2019-03-25T05:02:03.122Z,86.88
2019-03-25T05:04:30.445Z,86.81
2019-03-25T05:06:57.683Z,86.74
2019-03-25T05:09:24.913Z,87.10
2019-03-25T05:11:52.051Z,86.56
2019-03-25T05:14:19.365Z,86.85
2019-03-25T05:16:46.610Z,86.76
2019-03-25T05:19:13.865Z,85.67
2019-03-25T05:21:41.194Z,85.50
2019-03-25T05:24:08.506Z,85.61
2019-03-25T05:26:35.739Z,85.55
2019-03-25T05:29:03.048Z,85.67
2019-03-25T05:31:30.385Z,85.17
2019-03-25T05:33:57.705Z,84.92
2019-03-25T05:36:24.936Z,85.02
2019-03-25T05:38:52.151Z,84.77
2019-03-25T05:41:19.447Z,84.99
2019-03-25T05:43:46.669Z,84.83
2019-03-25T05:46:14.014Z,84.63
2019-03-25T05:48:41.320Z,85.06
2019-03-25T05:51:08.649Z,84.93
2019-03-25T05:53:35.739Z,84.84
2019-03-25T05:56:03.817Z,84.02
2019-03-25T05:58:30.977Z,83.46
2019-03-25T06:00:58.200Z,83.11
2019-03-25T06:03:25.596Z,83.80
2019-03-25T06:05:52.819Z,83.47
2019-03-25T06:08:20.157Z,83.53
2019-03-25T06:10:47.366Z,83.76
2019-03-25T06:13:14.590Z,83.75
2019-03-25T06:15:41.901Z,83.86
2019-03-25T06:18:09.219Z,83.64
2019-03-25T06:20:36.587Z,83.14
2019-03-25T06:23:03.933Z,83.15
2019-03-25T06:25:50.888Z,83.08
2019-03-25T06:28:18.231Z,82.82
2019-03-25T06:30:45.547Z,83.13
2019-03-25T06:33:13.022Z,82.92
2019-03-25T06:35:40.301Z,82.87
2019-03-25T06:38:07.639Z,82.39
2019-03-25T06:40:34.958Z,82.35
2019-03-25T06:43:02.135Z,82.55
2019-03-25T06:45:29.435Z,82.26
2019-03-25T06:47:56.772Z,81.71
2019-03-25T06:50:23.999Z,81.82
2019-03-25T06:52:51.330Z,79.98
2019-03-25T06:55:18.658Z,79.29
2019-03-25T06:57:45.905Z,78.41
2019-03-25T07:00:13.639Z,78.41
2019-03-25T07:02:40.966Z,78.46
2019-03-25T07:05:08.698Z,77.58
2019-03-25T07:07:36.032Z,77.14
2019-03-25T07:10:03.791Z,77.10
2019-03-25T07:12:31.217Z,73.71
2019-03-25T07:14:58.514Z,73.09
2019-03-25T07:17:45.113Z,76.32
2019-03-25T07:20:13.330Z,76.32
2019-03-25T07:22:40.665Z,76.39
2019-03-25T07:25:08.097Z,75.60
2019-03-25T07:27:36.979Z,75.01
2019-03-25T07:30:06.462Z,72.76
2019-03-25T07:32:33.789Z,73.15
2019-03-25T07:35:01.051Z,75.91
2019-03-25T07:37:28.287Z,77.06
2019-03-25T07:39:55.487Z,77.27
2019-03-25T07:42:22.804Z,77.78
2019-03-25T07:44:50.123Z,77.47
2019-03-25T07:47:17.360Z,77.08
2019-03-25T07:49:44.582Z,75.61
2019-03-25T07:52:11.924Z,76.54
2019-03-25T07:54:39.242Z,76.21
2019-03-25T07:57:06.947Z,76.21
2019-03-25T07:59:34.185Z,76.96
2019-03-25T08:02:01.484Z,76.43
2019-03-25T08:04:29.921Z,76.08
2019-03-25T08:06:57.245Z,75.42
2019-03-25T08:09:24.502Z,76.38
2019-03-25T08:11:51.820Z,77.86
2019-03-25T08:14:19.162Z,78.26
2019-03-25T08:16:46.263Z,78.35
2019-03-25T08:19:13.604Z,78.35
2019-03-25T08:21:40.918Z,78.10
2019-03-25T08:24:08.049Z,76.98
2019-03-25T08:26:35.358Z,76.98
2019-03-25T08:29:02.697Z,76.69
2019-03-25T08:31:29.915Z,77.22
2019-03-25T08:33:57.155Z,77.22
2019-03-25T08:36:24.378Z,80.40
2019-03-25T08:38:53.768Z,81.55
2019-03-25T08:41:21.084Z,83.08
2019-03-25T08:43:50.373Z,83.87
2019-03-25T08:46:17.523Z,83.86
2019-03-25T08:48:45.156Z,84.19
2019-03-25T08:51:12.393Z,82.97
2019-03-25T08:53:39.515Z,82.57
2019-03-25T08:56:06.842Z,81.96
2019-03-25T08:58:34.173Z,81.93
2019-03-25T09:01:01.510Z,79.25
2019-03-25T09:03:29.003Z,79.03
2019-03-25T09:05:59.305Z,79.25
2019-03-25T09:08:25.717Z,79.41
2019-03-25T09:10:53.176Z,80.01
2019-03-25T09:13:20.514Z,79.07
2019-03-25T09:15:47.843Z,79.07
2019-03-25T09:18:15.170Z,79.08
2019-03-25T09:20:42.528Z,79.00
2019-03-25T09:23:09.892Z,78.74
2019-03-25T09:25:37.104Z,78.58
2019-03-25T09:28:04.432Z,77.50
2019-03-25T09:31:14.956Z,77.66
2019-03-25T09:33:42.551Z,77.26
2019-03-25T09:36:09.916Z,77.72
2019-03-25T09:38:37.250Z,80.32
2019-03-25T09:41:04.595Z,81.06
2019-03-25T09:43:32.528Z,80.38
2019-03-25T09:46:00.052Z,80.38
2019-03-25T09:48:27.416Z,80.01
2019-03-25T09:50:54.708Z,77.50
2019-03-25T09:53:22.020Z,77.50
2019-03-25T09:55:49.350Z,77.84
2019-03-25T09:58:16.711Z,76.68
2019-03-25T10:00:44.081Z,76.10
2019-03-25T10:03:11.393Z,76.39
2019-03-25T10:05:38.726Z,77.40
2019-03-25T10:08:06.051Z,77.42
2019-03-25T10:10:33.382Z,77.81
2019-03-25T10:13:00.688Z,77.22
2019-03-25T10:15:28.033Z,78.17
2019-03-25T10:17:55.333Z,79.82
2019-03-25T10:20:22.656Z,81.54
2019-03-25T10:22:50.022Z,82.39
2019-03-25T10:25:17.459Z,82.46
2019-03-25T10:27:44.701Z,82.03
2019-03-25T10:30:12.848Z,82.03
2019-03-25T10:32:40.193Z,82.11
2019-03-25T10:35:08.408Z,81.29
2019-03-25T10:37:35.725Z,80.64
2019-03-25T10:40:04.261Z,77.56
2019-03-25T10:42:31.590Z,77.01
2019-03-25T10:44:58.983Z,74.39
2019-03-25T10:47:26.308Z,72.64
2019-03-25T10:49:53.664Z,74.17
2019-03-25T10:52:20.925Z,73.13
2019-03-25T10:54:48.367Z,72.97
2019-03-25T10:57:15.574Z,71.54
2019-03-25T10:59:42.904Z,72.18
2019-03-25T11:02:10.356Z,70.61
2019-03-25T11:04:37.587Z,72.51
2019-03-25T11:07:04.890Z,74.08
2019-03-25T11:09:32.318Z,76.60
2019-03-25T11:11:59.717Z,73.59
2019-03-25T11:14:26.938Z,70.53
2019-03-25T11:16:54.239Z,69.35
2019-03-25T11:19:21.550Z,68.56
2019-03-25T11:21:48.879Z,55.11
2019-03-25T11:24:16.234Z,55.96
2019-03-25T11:26:43.671Z,60.44
2019-03-25T11:29:10.881Z,62.51
2019-03-25T11:31:38.107Z,66.53
2019-03-25T11:34:05.411Z,64.87
2019-03-25T11:36:32.725Z,68.65
2019-03-25T11:38:59.941Z,70.82
2019-03-25T11:41:27.332Z,68.94
2019-03-25T11:43:54.661Z,60.20
2019-03-25T11:46:22.006Z,55.03
2019-03-25T11:48:49.253Z,49.97
2019-03-25T11:51:16.640Z,46.58
2019-03-25T11:53:43.976Z,47.40
2019-03-25T11:56:11.277Z,51.77
2019-03-25T11:58:38.609Z,53.73
2019-03-25T12:01:05.972Z,57.37
2019-03-25T12:03:33.309Z,65.21
2019-03-25T12:06:00.636Z,69.41
2019-03-25T12:08:27.938Z,70.31
2019-03-25T12:10:55.281Z,75.92
2019-03-25T12:13:22.584Z,75.21
2019-03-25T12:15:49.919Z,66.81
2019-03-25T12:18:17.248Z,55.66
2019-03-25T12:20:44.559Z,45.69
2019-03-25T12:23:11.885Z,45.42
2019-03-25T12:25:39.205Z,43.72
2019-03-25T12:28:07.241Z,48.53
2019-03-25T12:30:34.627Z,54.54
2019-03-25T12:33:04.345Z,58.12
2019-03-25T12:35:31.160Z,53.45
2019-03-25T12:37:58.378Z,45.78
2019-03-25T12:40:25.700Z,48.79
2019-03-25T12:42:53.005Z,42.71
2019-03-25T12:45:20.360Z,37.95
2019-03-25T12:47:47.679Z,30.66
2019-03-25T12:50:15.056Z,36.09
2019-03-25T12:52:42.381Z,38.64
2019-03-25T12:55:11.494Z,46.66
2019-03-25T12:57:38.814Z,46.73
2019-03-25T13:00:06.836Z,50.33
2019-03-25T13:02:34.161Z,57.66
2019-03-25T13:05:01.501Z,60.04
2019-03-25T13:07:28.798Z,63.07
2019-03-25T13:09:56.136Z,64.12
2019-03-25T13:12:23.512Z,65.02
2019-03-25T13:14:50.711Z,66.86
2019-03-25T13:17:18.031Z,65.51
2019-03-25T13:19:45.329Z,66.38
2019-03-25T13:22:12.637Z,65.96
2019-03-25T13:24:39.771Z,66.85
2019-03-25T13:27:06.997Z,65.87
2019-03-25T13:29:34.314Z,68.60
2019-03-25T13:32:01.531Z,69.14
2019-03-25T13:34:28.867Z,62.86
2019-03-25T13:36:56.091Z,46.53
2019-03-25T13:39:23.291Z,39.26
2019-03-25T13:41:50.514Z,34.68
2019-03-25T13:44:17.804Z,41.40
2019-03-25T13:46:45.175Z,37.48
2019-03-25T13:49:12.384Z,36.05
2019-03-25T13:51:39.622Z,35.06
2019-03-25T13:54:07.178Z,39.37
2019-03-25T13:56:34.558Z,42.16
2019-03-25T13:59:01.853Z,46.29
2019-03-25T14:01:29.192Z,46.17
2019-03-25T14:03:56.521Z,51.94
2019-03-25T14:06:23.842Z,54.69
2019-03-25T14:08:51.169Z,56.97
2019-03-25T14:11:18.509Z,58.37
2019-03-25T14:13:49.334Z,59.88
2019-03-25T14:16:15.039Z,59.89
2019-03-25T14:18:42.719Z,61.86
2019-03-25T14:21:10.025Z,66.22
2019-03-25T14:23:37.349Z,67.06
2019-03-25T14:26:04.565Z,64.21
2019-03-25T14:28:31.791Z,54.62
2019-03-25T14:30:59.009Z,52.63
2019-03-25T14:33:26.344Z,50.45
2019-03-25T14:35:53.555Z,53.41
2019-03-25T14:38:20.935Z,53.20
2019-03-25T14:40:48.280Z,55.53
2019-03-25T14:43:15.609Z,61.44
2019-03-25T14:45:42.952Z,61.97
2019-03-25T14:48:10.295Z,62.66
2019-03-25T14:50:37.610Z,61.65
2019-03-25T14:53:04.938Z,65.65
2019-03-25T14:55:33.110Z,68.27
2019-03-25T14:58:00.465Z,72.40
2019-03-25T15:00:27.771Z,71.29
2019-03-25T15:02:54.985Z,71.81
2019-03-25T15:05:22.285Z,74.13
2019-03-25T15:07:49.614Z,74.55
2019-03-25T15:10:17.010Z,76.15
2019-03-25T15:12:44.341Z,76.52
2019-03-25T15:15:12.767Z,76.41
2019-03-25T15:17:40.090Z,75.61
2019-03-25T15:20:10.107Z,73.43
2019-03-25T15:22:37.455Z,74.71
2019-03-25T15:25:05.590Z,75.04
2019-03-25T15:27:32.911Z,74.52
2019-03-25T15:30:00.302Z,75.21
2019-03-25T15:32:27.639Z,70.46
2019-03-25T15:34:54.840Z,73.35
2019-03-25T15:37:22.186Z,72.54
2019-03-25T15:39:49.507Z,74.42
2019-03-25T15:42:16.832Z,74.59
2019-03-25T15:44:44.040Z,72.83
2019-03-25T15:47:11.399Z,70.55
2019-03-25T15:49:39.060Z,62.13
2019-03-25T15:52:06.282Z,61.62
2019-03-25T15:54:33.635Z,60.77
2019-03-25T15:57:00.855Z,62.75
2019-03-25T15:59:28.194Z,63.28
2019-03-25T16:01:55.529Z,57.06
2019-03-25T16:04:22.759Z,57.60
2019-03-25T16:06:50.064Z,56.38
2019-03-25T16:09:17.419Z,57.36
2019-03-25T16:11:44.742Z,60.43
2019-03-25T16:14:11.963Z,65.08
2019-03-25T16:16:39.283Z,66.44
2019-03-25T16:19:06.620Z,67.24
2019-03-25T16:21:33.928Z,68.21
2019-03-25T16:24:01.257Z,67.72
2019-03-25T16:26:28.464Z,70.63
2019-03-25T16:28:55.687Z,68.31
2019-03-25T16:31:22.982Z,69.09
2019-03-25T16:33:50.221Z,69.73
2019-03-25T16:36:17.523Z,71.56
2019-03-25T16:38:44.887Z,70.67
2019-03-25T16:41:12.094Z,71.07
2019-03-25T16:43:39.401Z,70.44
2019-03-25T16:46:06.716Z,70.21
2019-03-25T16:48:34.046Z,70.15
2019-03-25T16:51:01.246Z,70.98
2019-03-25T16:53:28.603Z,70.81
2019-03-25T16:55:55.959Z,70.36
2019-03-25T16:58:23.249Z,69.42
2019-03-25T17:00:50.613Z,68.54
2019-03-25T17:03:17.905Z,64.02
2019-03-25T17:05:45.131Z,62.96
2019-03-25T17:08:12.424Z,63.37
2019-03-25T17:10:39.748Z,66.20
2019-03-25T17:13:09.366Z,66.80
2019-03-25T17:15:36.701Z,68.40
2019-03-25T17:18:04.007Z,68.72
2019-03-25T17:20:31.312Z,70.56
2019-03-25T17:22:58.621Z,70.64
2019-03-25T17:25:25.843Z,71.50
2019-03-25T17:27:53.135Z,71.99
2019-03-25T17:30:21.040Z,72.85
2019-03-25T17:32:48.361Z,72.54
2019-03-25T17:35:15.688Z,72.08
2019-03-25T17:37:42.888Z,71.94
2019-03-25T17:40:11.066Z,72.33
2019-03-25T17:42:38.486Z,72.57
2019-03-25T17:45:06.931Z,73.33
2019-03-25T17:47:34.140Z,73.80
2019-03-25T17:50:01.813Z,75.22
2019-03-25T17:52:29.064Z,76.33
2019-03-25T17:54:56.436Z,75.05
2019-03-25T17:57:23.823Z,75.40
2019-03-25T17:59:51.052Z,75.27
2019-03-25T18:02:18.468Z,74.03
2019-03-25T18:04:45.591Z,73.68
2019-03-25T18:07:12.798Z,72.56
2019-03-25T18:09:40.127Z,73.23
2019-03-25T18:12:07.451Z,73.95
2019-03-25T18:14:34.775Z,75.16
2019-03-25T18:17:02.081Z,77.37
2019-03-25T18:19:29.459Z,78.20
2019-03-25T18:21:56.603Z,78.72
2019-03-25T18:24:23.987Z,78.98
2019-03-25T18:26:51.284Z,77.79
2019-03-25T18:29:18.489Z,78.98
2019-03-25T18:31:46.124Z,78.76
2019-03-25T18:34:13.336Z,81.79
2019-03-25T18:36:40.656Z,82.63
2019-03-25T18:39:07.954Z,84.62
2019-03-25T18:41:35.285Z,85.84
2019-03-25T18:44:02.590Z,85.98
2019-03-25T18:46:29.935Z,85.45
2019-03-25T18:48:57.240Z,85.47
2019-03-25T18:51:24.676Z,85.75
2019-03-25T18:53:51.982Z,85.98
2019-03-25T18:56:19.314Z,86.38
2019-03-25T18:58:46.627Z,86.68
2019-03-25T19:01:13.997Z,86.89
2019-03-25T19:03:41.373Z,86.90
2019-03-25T19:06:08.686Z,87.07
2019-03-25T19:08:38.363Z,86.69
2019-03-25T19:11:05.819Z,86.81
2019-03-25T19:13:33.042Z,86.28
2019-03-25T19:16:00.401Z,85.18
2019-03-25T19:18:27.700Z,85.24
2019-03-25T19:20:55.059Z,84.69
2019-03-25T19:23:22.378Z,84.21
2019-03-25T19:25:49.714Z,84.87
2019-03-25T19:28:17.058Z,84.39
2019-03-25T19:30:44.379Z,84.83
2019-03-25T19:33:11.708Z,83.92
2019-03-25T19:35:39.025Z,84.03
2019-03-25T19:38:06.328Z,84.37
2019-03-25T19:40:33.650Z,83.91
2019-03-25T19:43:00.865Z,83.41
2019-03-25T19:45:28.196Z,82.50
2019-03-25T19:47:55.500Z,84.54
2019-03-25T19:50:22.859Z,85.29
2019-03-25T19:52:50.196Z,84.34
2019-03-25T19:55:17.498Z,83.20
2019-03-25T19:57:44.898Z,83.15
2019-03-25T20:00:13.036Z,82.55
2019-03-25T20:02:40.263Z,83.81
2019-03-25T20:05:07.801Z,83.05
2019-03-25T20:07:35.136Z,83.21
2019-03-25T20:10:02.761Z,83.16
2019-03-25T20:12:30.125Z,83.49
2019-03-25T20:14:57.394Z,83.44
2019-03-25T20:17:24.725Z,82.43
2019-03-25T20:19:51.918Z,82.44
2019-03-25T20:22:19.254Z,83.82
2019-03-25T20:24:46.510Z,81.56
2019-03-25T20:27:13.783Z,82.23
2019-03-25T20:29:41.027Z,82.40
2019-03-25T20:32:08.311Z,82.20
2019-03-25T20:34:37.795Z,83.16
2019-03-25T20:37:04.887Z,83.76
2019-03-25T20:39:32.260Z,83.55
2019-03-25T20:41:59.524Z,82.57
2019-03-25T20:44:26.785Z,82.62
2019-03-25T20:46:54.119Z,82.57
2019-03-25T20:49:21.481Z,82.95
2019-03-25T20:51:48.714Z,82.63
2019-03-25T20:54:16.007Z,82.81
2019-03-25T20:56:43.324Z,83.09
2019-03-25T20:59:10.629Z,82.73
2019-03-25T21:01:37.979Z,83.36
2019-03-25T21:04:05.310Z,83.34
2019-03-25T21:06:32.593Z,83.61
2019-03-25T21:08:59.877Z,83.20
2019-03-25T21:11:27.095Z,83.48
2019-03-25T21:13:54.321Z,83.07
2019-03-25T21:16:21.645Z,82.96
2019-03-25T21:18:48.849Z,83.57
2019-03-25T21:21:16.060Z,84.18
2019-03-25T21:23:43.413Z,84.52
2019-03-25T21:26:11.166Z,84.42
2019-03-25T21:28:38.667Z,84.66
2019-03-25T21:31:05.988Z,84.81
2019-03-25T21:33:33.304Z,84.96
2019-03-25T21:36:00.803Z,85.46
2019-03-25T21:38:28.190Z,85.82
2019-03-25T21:40:55.564Z,85.67
2019-03-25T21:43:22.965Z,85.76
2019-03-25T21:45:50.148Z,85.52
2019-03-25T21:48:17.438Z,85.52
2019-03-25T21:50:44.834Z,84.65
2019-03-25T21:53:12.165Z,84.54
2019-03-25T21:55:39.432Z,84.70
2019-03-25T21:58:06.735Z,85.08
2019-03-25T22:00:34.068Z,85.54
2019-03-25T22:03:11.456Z,85.54
2019-03-25T22:05:30.619Z,85.51
2019-03-25T22:07:57.957Z,85.67
2019-03-25T22:10:25.275Z,85.82
2019-03-25T22:12:52.598Z,85.52
2019-03-25T22:15:19.950Z,85.81
2019-03-25T22:17:47.179Z,85.78
2019-03-25T22:20:14.733Z,85.78
2019-03-25T22:22:41.970Z,85.91
2019-03-25T22:25:09.282Z,85.80
2019-03-25T22:27:36.619Z,85.73
2019-03-25T22:30:04.018Z,85.91
2019-03-25T22:32:31.357Z,85.98
2019-03-25T22:34:58.669Z,86.31
2019-03-25T22:37:25.923Z,86.62
2019-03-25T22:39:53.241Z,86.62
2019-03-25T22:42:20.478Z,86.77
2019-03-25T22:44:47.693Z,86.88
2019-03-25T22:47:14.910Z,86.65
2019-03-25T22:49:42.144Z,85.86
2019-03-25T22:52:09.371Z,86.01
2019-03-25T22:54:36.729Z,86.01
2019-03-25T22:57:04.079Z,85.83
2019-03-25T22:59:31.311Z,85.11
2019-03-25T23:01:58.753Z,84.95
2019-03-25T23:04:25.986Z,85.00
2019-03-25T23:06:53.311Z,85.18
2019-03-25T23:09:20.638Z,85.39
2019-03-25T23:11:47.761Z,84.74
2019-03-25T23:14:14.998Z,85.00
2019-03-25T23:16:42.356Z,85.01
2019-03-25T23:19:09.588Z,85.01
2019-03-25T23:21:36.841Z,84.95
2019-03-25T23:24:04.204Z,84.37
2019-03-25T23:26:31.516Z,84.41
2019-03-25T23:28:58.758Z,84.49
2019-03-25T23:31:26.071Z,84.73
2019-03-25T23:33:53.400Z,83.84
2019-03-25T23:36:20.707Z,83.89
2019-03-25T23:38:48.051Z,84.27
2019-03-25T23:41:15.366Z,84.70
2019-03-25T23:43:42.496Z,84.52
2019-03-25T23:46:09.796Z,84.46
2019-03-25T23:48:37.013Z,84.04
2019-03-25T23:51:04.328Z,84.21
2019-03-25T23:53:31.666Z,84.01
2019-03-25T23:55:58.876Z,84.22
2019-03-25T23:58:26.200Z,83.92
